sensor_id;sensor_type;location;lat;lon;timestamp;temperature;humidity
20162;DHT22;51382;53.180;15.414;2023-09-08T00:11:41;16.70;99.90
20162;DHT22;51382;53.180;15.414;2023-09-08T00:26:53;16.50;99.90
20162;DHT22;51382;53.180;15.414;2023-09-08T00:42:07;16.10;99.90
20162;DHT22;51382;53.180;15.414;2023-09-08T00:57:19;16.00;99.90
20162;DHT22;51382;53.180;15.414;2023-09-08T01:12:32;16.00;99.90
20162;DHT22;51382;53.180;15.414;2023-09-08T01:27:42;15.90;99.90
20162;DHT22;51382;53.180;15.414;2023-09-08T01:42:55;15.80;99.90
20162;DHT22;51382;53.180;15.414;2023-09-08T01:58:09;15.70;99.90
20162;DHT22;51382;53.180;15.414;2023-09-08T02:13:20;15.50;99.90
20162;DHT22;51382;53.180;15.414;2023-09-08T02:28:28;15.20;99.90
20162;DHT22;51382;53.180;15.414;2023-09-08T02:43:40;15.00;99.90
20162;DHT22;51382;53.180;15.414;2023-09-08T02:58:50;15.00;99.90
20162;DHT22;51382;53.180;15.414;2023-09-08T03:13:58;14.90;99.90
20162;DHT22;51382;53.180;15.414;2023-09-08T03:29:11;14.80;99.90
20162;DHT22;51382;53.180;15.414;2023-09-08T03:44:22;14.60;99.90
20162;DHT22;51382;53.180;15.414;2023-09-08T03:59:29;14.70;99.90
20162;DHT22;51382;53.180;15.414;2023-09-08T04:14:40;14.60;99.90
20162;DHT22;51382;53.180;15.414;2023-09-08T04:29:53;14.50;99.90
20162;DHT22;51382;53.180;15.414;2023-09-08T04:45:05;14.50;99.90
20162;DHT22;51382;53.180;15.414;2023-09-08T05:00:22;16.20;99.90
20162;DHT22;51382;53.180;15.414;2023-09-08T05:15:36;15.10;99.90
20162;DHT22;51382;53.180;15.414;2023-09-08T05:30:50;15.30;99.90
20162;DHT22;51382;53.180;15.414;2023-09-08T05:46:01;15.80;99.90
20162;DHT22;51382;53.180;15.414;2023-09-08T06:01:09;16.40;99.90
20162;DHT22;51382;53.180;15.414;2023-09-08T06:16:26;17.50;99.90
20162;DHT22;51382;53.180;15.414;2023-09-08T06:31:38;20.70;99.90
20162;DHT22;51382;53.180;15.414;2023-09-08T06:46:46;24.90;99.90
20162;DHT22;51382;53.180;15.414;2023-09-08T07:01:57;26.50;95.00
20162;DHT22;51382;53.180;15.414;2023-09-08T07:17:06;28.20;90.40
20162;DHT22;51382;53.180;15.414;2023-09-08T07:32:17;29.20;87.40
20162;DHT22;51382;53.180;15.414;2023-09-08T07:47:31;24.20;94.10
20162;DHT22;51382;53.180;15.414;2023-09-08T08:02:47;23.60;94.50
20162;DHT22;51382;53.180;15.414;2023-09-08T08:18:08;24.20;93.80
20162;DHT22;51382;53.180;15.414;2023-09-08T08:33:24;24.60;92.70
20162;DHT22;51382;53.180;15.414;2023-09-08T08:48:33;24.90;91.40
20162;DHT22;51382;53.180;15.414;2023-09-08T09:03:48;24.90;90.00
20162;DHT22;51382;53.180;15.414;2023-09-08T09:19:05;25.30;88.60
20162;DHT22;51382;53.180;15.414;2023-09-08T09:34:20;25.90;86.50
20162;DHT22;51382;53.180;15.414;2023-09-08T09:49:32;25.90;83.30
20162;DHT22;51382;53.180;15.414;2023-09-08T10:04:53;26.70;80.00
20162;DHT22;51382;53.180;15.414;2023-09-08T10:20:10;28.20;73.90
20162;DHT22;51382;53.180;15.414;2023-09-08T10:35:23;29.10;69.10
20162;DHT22;51382;53.180;15.414;2023-09-08T10:50:34;26.50;73.70
20162;DHT22;51382;53.180;15.414;2023-09-08T11:05:57;26.50;74.50
20162;DHT22;51382;53.180;15.414;2023-09-08T11:21:07;26.70;73.30
20162;DHT22;51382;53.180;15.414;2023-09-08T11:36:23;26.50;74.00
20162;DHT22;51382;53.180;15.414;2023-09-08T11:51:36;26.60;73.20
20162;DHT22;51382;53.180;15.414;2023-09-08T12:06:51;26.60;69.80
20162;DHT22;51382;53.180;15.414;2023-09-08T12:22:03;26.70;74.10
20162;DHT22;51382;53.180;15.414;2023-09-08T12:37:21;26.90;72.30
20162;DHT22;51382;53.180;15.414;2023-09-08T12:52:34;26.90;70.00
20162;DHT22;51382;53.180;15.414;2023-09-08T13:07:51;26.80;70.00
20162;DHT22;51382;53.180;15.414;2023-09-08T13:23:01;26.80;66.40
20162;DHT22;51382;53.180;15.414;2023-09-08T13:38:08;27.00;71.50
20162;DHT22;51382;53.180;15.414;2023-09-08T13:53:26;27.00;71.70
20162;DHT22;51382;53.180;15.414;2023-09-08T14:08:37;26.90;70.80
20162;DHT22;51382;53.180;15.414;2023-09-08T14:23:48;26.80;69.00
20162;DHT22;51382;53.180;15.414;2023-09-08T14:39:03;26.80;68.20
20162;DHT22;51382;53.180;15.414;2023-09-08T14:54:14;26.70;68.50
20162;DHT22;51382;53.180;15.414;2023-09-08T15:09:31;26.60;69.20
20162;DHT22;51382;53.180;15.414;2023-09-08T15:24:46;26.50;69.00
20162;DHT22;51382;53.180;15.414;2023-09-08T15:39:53;26.40;71.40
20162;DHT22;51382;53.180;15.414;2023-09-08T15:55:05;26.10;72.00
20162;DHT22;51382;53.180;15.414;2023-09-08T16:10:17;25.80;72.00
20162;DHT22;51382;53.180;15.414;2023-09-08T16:25:31;25.40;75.40
20162;DHT22;51382;53.180;15.414;2023-09-08T16:40:45;24.90;78.50
20162;DHT22;51382;53.180;15.414;2023-09-08T16:55:53;24.30;80.30
20162;DHT22;51382;53.180;15.414;2023-09-08T17:11:08;23.70;83.30
20162;DHT22;51382;53.180;15.414;2023-09-08T17:26:16;23.10;86.10
20162;DHT22;51382;53.180;15.414;2023-09-08T17:41:27;22.20;91.50
20162;DHT22;51382;53.180;15.414;2023-09-08T17:56:43;21.60;92.70
20162;DHT22;51382;53.180;15.414;2023-09-08T18:11:53;20.90;94.70
20162;DHT22;51382;53.180;15.414;2023-09-08T18:27:02;20.40;97.10
20162;DHT22;51382;53.180;15.414;2023-09-08T18:42:16;19.90;99.50
20162;DHT22;51382;53.180;15.414;2023-09-08T18:57:29;19.60;99.50
20162;DHT22;51382;53.180;15.414;2023-09-08T19:12:39;19.10;99.90
20162;DHT22;51382;53.180;15.414;2023-09-08T19:27:46;18.30;99.90
20162;DHT22;51382;53.180;15.414;2023-09-08T19:43:00;17.70;99.90
20162;DHT22;51382;53.180;15.414;2023-09-08T19:58:15;17.50;99.90
20162;DHT22;51382;53.180;15.414;2023-09-08T20:13:28;17.60;99.90
20162;DHT22;51382;53.180;15.414;2023-09-08T20:28:40;17.60;99.90
20162;DHT22;51382;53.180;15.414;2023-09-08T20:43:49;17.60;99.90
20162;DHT22;51382;53.180;15.414;2023-09-08T20:58:57;17.60;99.90
20162;DHT22;51382;53.180;15.414;2023-09-08T21:14:12;17.30;99.90
20162;DHT22;51382;53.180;15.414;2023-09-08T21:29:20;17.20;99.90
20162;DHT22;51382;53.180;15.414;2023-09-08T21:44:39;17.00;99.90
20162;DHT22;51382;53.180;15.414;2023-09-08T22:00:01;16.60;99.90
20162;DHT22;51382;53.180;15.414;2023-09-08T22:15:13;16.50;99.90
20162;DHT22;51382;53.180;15.414;2023-09-08T22:30:27;16.40;99.90
20162;DHT22;51382;53.180;15.414;2023-09-08T22:45:37;16.20;99.90
20162;DHT22;51382;53.180;15.414;2023-09-08T23:00:49;16.00;99.90
20162;DHT22;51382;53.180;15.414;2023-09-08T23:16:04;15.70;99.90
20162;DHT22;51382;53.180;15.414;2023-09-08T23:31:22;15.80;99.90
20162;DHT22;51382;53.180;15.414;2023-09-08T23:46:33;15.80;99.90
